METAR AND TAF INFORMATION
METAR FOR LIEE
ADDS - METARS form results

(1943 UTC 06 December 2021)
Data provider http://aviationweather.gov/metar/data/
 
METAR text: LIEE 061920Z 32015KT CAVOK 10/04 Q1013
Conditions at: LIEE (CAGLIARI/ELMAS(A, IT) observed 1920 UTC 06 December 2021
Temperature: 10.0°C (50°F)
Dewpoint: 4.0°C (39°F) [RH = 66%]
Pressure (altimeter): 29.91 inches Hg (1013.0 mb)
Winds: from the NW (320 degrees) at 17 MPH (15 knots; 7.7 m/s)
Visibility: 6 or more miles (10+ km)
Ceiling: ceiling and visibility are OK
Clouds: unknown
Weather: no significant weather observed at this time

METAR text: LIEE 061850Z 33011KT CAVOK 09/04 Q1013
Conditions at: LIEE (CAGLIARI/ELMAS(A, IT) observed 1850 UTC 06 December 2021
Temperature: 9.0°C (48°F)
Dewpoint: 4.0°C (39°F) [RH = 71%]
Pressure (altimeter): 29.91 inches Hg (1013.0 mb)
Winds: from the NNW (330 degrees) at 13 MPH (11 knots; 5.7 m/s)
Visibility: 6 or more miles (10+ km)
Ceiling: ceiling and visibility are OK
Clouds: unknown
Weather: no significant weather observed at this time

Forecast for: LIEE (CAGLIARI/ELMAS(A, IT)
Text: TAF LIEE 061700Z 0618/0718 35016KT 9999 SCT030
Forecast period: 1800 UTC 06 December 2021 to 1800 UTC 07 December 2021
Forecast type: FROM: standard forecast or significant change
Winds: from the N (350 degrees) at 18 MPH (16 knots; 8.2 m/s)
Visibility: 6 or more miles (10+ km)
Ceiling: at least 12,000 feet AGL
Clouds: scattered clouds at 3000 feet AGL
Weather: no significant weather forecast for this period

 AIRPORT MAP

 RUNWAY INFORMATION
Runway 14 Runway length 9196 ft Runway width 148 ft
Runway elevation 9 ft Runway displaced threshold 0 ft Runway heading 138
Runway 32 Runway length 9196 ft Runway width 148 ft
Runway elevation 4 ft Runway displaced threshold 0 ft Runway heading 318

 AIRPORT FREQUENCIES
Type APP Name CAGLIARI A Frequency 118.75 MHZ
Type GND Name Elmas GND Frequency 125.425 MHZ
Type MISC Name SAR Frequency 123.1 MHZ
Type TWR Name TWR Frequency 120.6 MHZ

 AIRPORT NEAR NAVIGATION AIDS
Type VOR-DME Name Cagliari Frequency 113400 KHZ
Type NDB Name Cagliari Frequency 371 KHZ



Datenschutz / Privacy Policy • Impressum / Imprint • Disclaimer


Powered by Virtual Airlines Manager [v2.6.2]

Logo VAM